sensor_id;sensor_type;location;lat;lon;timestamp;temperature;humidity
70807;DHT22;58882;52.170;5.386;2022-09-09T00:02:23;22.80;54.70
70807;DHT22;58882;52.170;5.386;2022-09-09T00:08:18;22.80;54.60
70807;DHT22;58882;52.170;5.386;2022-09-09T00:11:18;22.80;54.50
70807;DHT22;58882;52.170;5.386;2022-09-09T00:14:27;22.80;54.70
70807;DHT22;58882;52.170;5.386;2022-09-09T00:20:37;22.70;54.60
70807;DHT22;58882;52.170;5.386;2022-09-09T00:23:35;22.70;54.60
70807;DHT22;58882;52.170;5.386;2022-09-09T00:26:43;22.70;54.60
70807;DHT22;58882;52.170;5.386;2022-09-09T00:29:35;22.70;54.80
70807;DHT22;58882;52.170;5.386;2022-09-09T00:32:33;22.70;55.70
70807;DHT22;58882;52.170;5.386;2022-09-09T00:41:15;22.70;54.90
70807;DHT22;58882;52.170;5.386;2022-09-09T00:44:58;22.60;54.70
70807;DHT22;58882;52.170;5.386;2022-09-09T00:47:58;22.60;54.70
70807;DHT22;58882;52.170;5.386;2022-09-09T00:51:01;22.60;54.60
70807;DHT22;58882;52.170;5.386;2022-09-09T00:56:54;22.50;55.00
70807;DHT22;58882;52.170;5.386;2022-09-09T00:59:45;22.50;54.80
70807;DHT22;58882;52.170;5.386;2022-09-09T01:05:55;22.50;55.00
70807;DHT22;58882;52.170;5.386;2022-09-09T01:09:16;22.50;55.20
70807;DHT22;58882;52.170;5.386;2022-09-09T01:12:23;22.50;55.20
70807;DHT22;58882;52.170;5.386;2022-09-09T01:15:26;22.40;55.30
70807;DHT22;58882;52.170;5.386;2022-09-09T01:18:11;22.50;55.20
70807;DHT22;58882;52.170;5.386;2022-09-09T01:21:13;22.50;55.10
70807;DHT22;58882;52.170;5.386;2022-09-09T01:27:23;22.50;55.10
70807;DHT22;58882;52.170;5.386;2022-09-09T01:29:58;22.50;55.10
70807;DHT22;58882;52.170;5.386;2022-09-09T01:32:56;22.40;55.00
70807;DHT22;58882;52.170;5.386;2022-09-09T01:38:48;22.40;55.00
70807;DHT22;58882;52.170;5.386;2022-09-09T01:41:21;22.40;55.00
70807;DHT22;58882;52.170;5.386;2022-09-09T01:44:20;22.40;55.00
70807;DHT22;58882;52.170;5.386;2022-09-09T01:47:01;22.40;55.00
70807;DHT22;58882;52.170;5.386;2022-09-09T01:50:17;22.40;54.90
70807;DHT22;58882;52.170;5.386;2022-09-09T01:52:52;22.40;54.90
70807;DHT22;58882;52.170;5.386;2022-09-09T02:02:13;22.30;55.00
70807;DHT22;58882;52.170;5.386;2022-09-09T02:11:27;22.30;54.90
70807;DHT22;58882;52.170;5.386;2022-09-09T02:14:25;22.30;55.00
70807;DHT22;58882;52.170;5.386;2022-09-09T02:17:18;22.20;54.90
70807;DHT22;58882;52.170;5.386;2022-09-09T02:20:13;22.20;54.80
70807;DHT22;58882;52.170;5.386;2022-09-09T02:23:14;22.20;54.80
70807;DHT22;58882;52.170;5.386;2022-09-09T02:25:57;22.20;54.90
70807;DHT22;58882;52.170;5.386;2022-09-09T02:28:46;22.10;54.90
70807;DHT22;58882;52.170;5.386;2022-09-09T02:31:27;22.10;55.10
70807;DHT22;58882;52.170;5.386;2022-09-09T02:34:23;22.10;55.20
70807;DHT22;58882;52.170;5.386;2022-09-09T02:37:07;22.10;56.30
70807;DHT22;58882;52.170;5.386;2022-09-09T02:39:58;22.00;55.20
70807;DHT22;58882;52.170;5.386;2022-09-09T02:42:43;22.00;55.20
70807;DHT22;58882;52.170;5.386;2022-09-09T02:46:08;22.00;55.30
70807;DHT22;58882;52.170;5.386;2022-09-09T02:52:01;22.00;55.30
70807;DHT22;58882;52.170;5.386;2022-09-09T02:54:42;21.90;55.40
70807;DHT22;58882;52.170;5.386;2022-09-09T02:57:31;21.90;55.40
70807;DHT22;58882;52.170;5.386;2022-09-09T03:00:15;21.80;55.60
70807;DHT22;58882;52.170;5.386;2022-09-09T03:03:09;21.80;55.50
70807;DHT22;58882;52.170;5.386;2022-09-09T03:05:52;21.80;56.80
70807;DHT22;58882;52.170;5.386;2022-09-09T03:08:39;21.80;55.70
70807;DHT22;58882;52.170;5.386;2022-09-09T03:11:32;21.80;55.70
70807;DHT22;58882;52.170;5.386;2022-09-09T03:14:14;21.80;55.70
70807;DHT22;58882;52.170;5.386;2022-09-09T03:17:05;21.80;55.60
70807;DHT22;58882;52.170;5.386;2022-09-09T03:19:50;21.70;55.80
70807;DHT22;58882;52.170;5.386;2022-09-09T03:22:38;21.70;55.80
70807;DHT22;58882;52.170;5.386;2022-09-09T03:25:18;21.70;55.90
70807;DHT22;58882;52.170;5.386;2022-09-09T03:28:06;21.70;55.90
70807;DHT22;58882;52.170;5.386;2022-09-09T03:30:46;21.60;55.80
70807;DHT22;58882;52.170;5.386;2022-09-09T03:33:39;21.60;55.80
70807;DHT22;58882;52.170;5.386;2022-09-09T03:36:21;21.60;55.80
70807;DHT22;58882;52.170;5.386;2022-09-09T03:39:01;21.60;55.80
70807;DHT22;58882;52.170;5.386;2022-09-09T03:41:50;21.60;55.80
70807;DHT22;58882;52.170;5.386;2022-09-09T03:44:32;21.60;55.90
70807;DHT22;58882;52.170;5.386;2022-09-09T03:47:30;21.60;56.80
70807;DHT22;58882;52.170;5.386;2022-09-09T03:50:06;21.60;55.80
70807;DHT22;58882;52.170;5.386;2022-09-09T03:53:01;21.60;56.10
70807;DHT22;58882;52.170;5.386;2022-09-09T03:55:49;21.60;55.60
70807;DHT22;58882;52.170;5.386;2022-09-09T03:58:37;21.60;55.60
70807;DHT22;58882;52.170;5.386;2022-09-09T04:01:17;21.50;55.60
70807;DHT22;58882;52.170;5.386;2022-09-09T04:04:05;21.50;55.70
70807;DHT22;58882;52.170;5.386;2022-09-09T04:06:45;21.50;55.70
70807;DHT22;58882;52.170;5.386;2022-09-09T04:09:32;21.50;55.60
70807;DHT22;58882;52.170;5.386;2022-09-09T04:12:20;21.50;55.60
70807;DHT22;58882;52.170;5.386;2022-09-09T04:15:00;21.50;55.80
70807;DHT22;58882;52.170;5.386;2022-09-09T04:17:49;21.50;55.70
70807;DHT22;58882;52.170;5.386;2022-09-09T04:20:23;21.50;55.80
70807;DHT22;58882;52.170;5.386;2022-09-09T04:23:18;21.40;55.80
70807;DHT22;58882;52.170;5.386;2022-09-09T04:26:00;21.40;55.80
70807;DHT22;58882;52.170;5.386;2022-09-09T04:28:47;21.40;55.90
70807;DHT22;58882;52.170;5.386;2022-09-09T04:31:22;21.40;55.90
70807;DHT22;58882;52.170;5.386;2022-09-09T04:34:17;21.40;56.00
70807;DHT22;58882;52.170;5.386;2022-09-09T04:36:57;21.40;56.00
70807;DHT22;58882;52.170;5.386;2022-09-09T04:39:44;21.40;55.90
70807;DHT22;58882;52.170;5.386;2022-09-09T04:42:18;21.40;55.90
70807;DHT22;58882;52.170;5.386;2022-09-09T04:45:12;21.40;55.80
70807;DHT22;58882;52.170;5.386;2022-09-09T04:47:53;21.40;57.00
70807;DHT22;58882;52.170;5.386;2022-09-09T04:51:01;21.40;56.00
70807;DHT22;58882;52.170;5.386;2022-09-09T04:53:43;21.40;57.20
70807;DHT22;58882;52.170;5.386;2022-09-09T04:56:30;21.40;56.10
70807;DHT22;58882;52.170;5.386;2022-09-09T04:59:11;21.40;56.20
70807;DHT22;58882;52.170;5.386;2022-09-09T05:02:01;21.40;56.10
70807;DHT22;58882;52.170;5.386;2022-09-09T05:04:42;21.30;56.10
70807;DHT22;58882;52.170;5.386;2022-09-09T05:07:36;21.30;56.00
70807;DHT22;58882;52.170;5.386;2022-09-09T05:10:16;21.40;57.10
70807;DHT22;58882;52.170;5.386;2022-09-09T05:13:05;21.30;56.10
70807;DHT22;58882;52.170;5.386;2022-09-09T05:15:52;21.40;56.10
70807;DHT22;58882;52.170;5.386;2022-09-09T05:18:40;21.40;56.00
70807;DHT22;58882;52.170;5.386;2022-09-09T05:21:23;21.30;56.00
70807;DHT22;58882;52.170;5.386;2022-09-09T05:24:12;21.30;56.00
70807;DHT22;58882;52.170;5.386;2022-09-09T05:26:54;21.30;56.00
70807;DHT22;58882;52.170;5.386;2022-09-09T05:29:42;21.30;55.90
70807;DHT22;58882;52.170;5.386;2022-09-09T05:32:24;21.30;56.10
70807;DHT22;58882;52.170;5.386;2022-09-09T05:35:14;21.30;56.10
70807;DHT22;58882;52.170;5.386;2022-09-09T05:37:59;21.40;56.30
70807;DHT22;58882;52.170;5.386;2022-09-09T05:40:49;21.40;56.20
70807;DHT22;58882;52.170;5.386;2022-09-09T05:43:30;21.40;56.10
70807;DHT22;58882;52.170;5.386;2022-09-09T05:46:21;21.40;56.10
70807;DHT22;58882;52.170;5.386;2022-09-09T05:49:02;21.40;56.10
70807;DHT22;58882;52.170;5.386;2022-09-09T05:51:49;21.40;55.90
70807;DHT22;58882;52.170;5.386;2022-09-09T05:54:30;21.40;56.00
70807;DHT22;58882;52.170;5.386;2022-09-09T05:57:18;21.50;56.00
70807;DHT22;58882;52.170;5.386;2022-09-09T05:59:59;21.50;56.00
70807;DHT22;58882;52.170;5.386;2022-09-09T06:02:52;21.60;56.00
70807;DHT22;58882;52.170;5.386;2022-09-09T06:05:32;21.60;55.90
70807;DHT22;58882;52.170;5.386;2022-09-09T06:08:19;21.70;55.70
70807;DHT22;58882;52.170;5.386;2022-09-09T06:11:08;21.80;55.60
70807;DHT22;58882;52.170;5.386;2022-09-09T06:14:03;21.80;55.40
70807;DHT22;58882;52.170;5.386;2022-09-09T06:16:39;21.80;55.20
70807;DHT22;58882;52.170;5.386;2022-09-09T06:19:35;21.90;55.20
70807;DHT22;58882;52.170;5.386;2022-09-09T06:22:15;21.90;55.10
70807;DHT22;58882;52.170;5.386;2022-09-09T06:25:02;22.00;54.90
70807;DHT22;58882;52.170;5.386;2022-09-09T06:27:42;22.10;54.80
70807;DHT22;58882;52.170;5.386;2022-09-09T06:30:29;22.20;54.60
70807;DHT22;58882;52.170;5.386;2022-09-09T06:33:11;22.30;54.30
70807;DHT22;58882;52.170;5.386;2022-09-09T06:36:05;22.40;54.00
70807;DHT22;58882;52.170;5.386;2022-09-09T06:38:46;22.50;53.80
70807;DHT22;58882;52.170;5.386;2022-09-09T06:41:41;22.60;53.70
70807;DHT22;58882;52.170;5.386;2022-09-09T06:44:51;23.00;53.20
70807;DHT22;58882;52.170;5.386;2022-09-09T06:47:55;23.40;52.30
70807;DHT22;58882;52.170;5.386;2022-09-09T06:50:36;23.80;51.30
70807;DHT22;58882;52.170;5.386;2022-09-09T06:53:24;24.10;50.30
70807;DHT22;58882;52.170;5.386;2022-09-09T06:56:17;24.10;50.00
70807;DHT22;58882;52.170;5.386;2022-09-09T06:59:08;24.00;50.00
70807;DHT22;58882;52.170;5.386;2022-09-09T07:01:52;23.90;50.30
70807;DHT22;58882;52.170;5.386;2022-09-09T07:04:39;23.80;50.50
70807;DHT22;58882;52.170;5.386;2022-09-09T07:07:19;23.80;50.50
70807;DHT22;58882;52.170;5.386;2022-09-09T07:10:07;23.70;50.60
70807;DHT22;58882;52.170;5.386;2022-09-09T07:12:50;23.70;50.60
70807;DHT22;58882;52.170;5.386;2022-09-09T07:15:37;23.80;50.90
70807;DHT22;58882;52.170;5.386;2022-09-09T07:18:17;23.80;50.70
70807;DHT22;58882;52.170;5.386;2022-09-09T07:21:04;23.80;50.40
70807;DHT22;58882;52.170;5.386;2022-09-09T07:23:44;23.80;50.30
70807;DHT22;58882;52.170;5.386;2022-09-09T07:26:31;23.90;50.30
70807;DHT22;58882;52.170;5.386;2022-09-09T07:29:11;23.90;50.20
70807;DHT22;58882;52.170;5.386;2022-09-09T07:32:00;23.80;51.20
70807;DHT22;58882;52.170;5.386;2022-09-09T07:34:40;23.80;50.30
70807;DHT22;58882;52.170;5.386;2022-09-09T07:37:27;23.80;50.30
70807;DHT22;58882;52.170;5.386;2022-09-09T07:40:07;23.80;50.20
70807;DHT22;58882;52.170;5.386;2022-09-09T07:43:02;23.80;50.30
70807;DHT22;58882;52.170;5.386;2022-09-09T07:45:44;23.80;50.30
70807;DHT22;58882;52.170;5.386;2022-09-09T07:48:31;23.90;50.20
70807;DHT22;58882;52.170;5.386;2022-09-09T07:51:13;24.00;50.10
70807;DHT22;58882;52.170;5.386;2022-09-09T07:54:04;24.30;50.10
70807;DHT22;58882;52.170;5.386;2022-09-09T07:56:44;24.50;49.20
70807;DHT22;58882;52.170;5.386;2022-09-09T07:59:41;24.60;49.00
70807;DHT22;58882;52.170;5.386;2022-09-09T08:02:21;24.60;48.70
70807;DHT22;58882;52.170;5.386;2022-09-09T08:05:09;24.60;48.60
70807;DHT22;58882;52.170;5.386;2022-09-09T08:07:49;24.70;48.60
70807;DHT22;58882;52.170;5.386;2022-09-09T08:10:37;24.60;48.60
70807;DHT22;58882;52.170;5.386;2022-09-09T08:13:24;24.60;48.60
70807;DHT22;58882;52.170;5.386;2022-09-09T08:16:13;24.50;48.60
70807;DHT22;58882;52.170;5.386;2022-09-09T08:19:03;24.50;48.70
70807;DHT22;58882;52.170;5.386;2022-09-09T08:21:45;24.40;48.80
70807;DHT22;58882;52.170;5.386;2022-09-09T08:24:33;24.40;48.90
70807;DHT22;58882;52.170;5.386;2022-09-09T08:27:13;24.40;48.90
70807;DHT22;58882;52.170;5.386;2022-09-09T08:30:00;24.30;48.90
70807;DHT22;58882;52.170;5.386;2022-09-09T08:32:40;24.30;48.90
70807;DHT22;58882;52.170;5.386;2022-09-09T08:35:31;24.30;49.00
70807;DHT22;58882;52.170;5.386;2022-09-09T08:38:12;24.30;48.90
70807;DHT22;58882;52.170;5.386;2022-09-09T08:47:51;24.30;48.90
70807;DHT22;58882;52.170;5.386;2022-09-09T08:50:42;24.30;48.90
70807;DHT22;58882;52.170;5.386;2022-09-09T08:53:23;24.30;48.80
70807;DHT22;58882;52.170;5.386;2022-09-09T08:56:24;24.30;48.80
70807;DHT22;58882;52.170;5.386;2022-09-09T08:59:02;24.30;48.90
70807;DHT22;58882;52.170;5.386;2022-09-09T09:04:57;24.30;48.50
70807;DHT22;58882;52.170;5.386;2022-09-09T09:10:51;24.40;48.50
70807;DHT22;58882;52.170;5.386;2022-09-09T09:14:17;24.30;48.60
70807;DHT22;58882;52.170;5.386;2022-09-09T09:17:05;24.30;48.50
70807;DHT22;58882;52.170;5.386;2022-09-09T09:20:00;24.30;48.50
70807;DHT22;58882;52.170;5.386;2022-09-09T09:22:51;24.30;48.50
70807;DHT22;58882;52.170;5.386;2022-09-09T09:25:45;24.30;48.50
70807;DHT22;58882;52.170;5.386;2022-09-09T09:28:29;24.30;48.60
70807;DHT22;58882;52.170;5.386;2022-09-09T09:31:21;24.30;48.70
70807;DHT22;58882;52.170;5.386;2022-09-09T09:34:02;24.20;48.50
70807;DHT22;58882;52.170;5.386;2022-09-09T09:39:35;24.30;48.80
70807;DHT22;58882;52.170;5.386;2022-09-09T09:45:34;24.30;48.60
70807;DHT22;58882;52.170;5.386;2022-09-09T09:48:34;24.20;48.50
70807;DHT22;58882;52.170;5.386;2022-09-09T09:51:17;24.20;48.60
70807;DHT22;58882;52.170;5.386;2022-09-09T09:54:18;24.30;48.70
70807;DHT22;58882;52.170;5.386;2022-09-09T09:57:13;24.20;48.60
70807;DHT22;58882;52.170;5.386;2022-09-09T10:00:17;24.20;48.50
70807;DHT22;58882;52.170;5.386;2022-09-09T10:06:15;24.20;48.50
70807;DHT22;58882;52.170;5.386;2022-09-09T10:08:50;24.30;48.50
70807;DHT22;58882;52.170;5.386;2022-09-09T10:11:59;24.30;48.50
70807;DHT22;58882;52.170;5.386;2022-09-09T10:18:56;24.30;48.50
70807;DHT22;58882;52.170;5.386;2022-09-09T10:34:10;24.20;48.60
70807;DHT22;58882;52.170;5.386;2022-09-09T10:37:00;24.20;48.70
70807;DHT22;58882;52.170;5.386;2022-09-09T10:39:44;24.10;48.70
70807;DHT22;58882;52.170;5.386;2022-09-09T10:42:38;24.20;48.70
70807;DHT22;58882;52.170;5.386;2022-09-09T10:45:22;24.20;48.50
70807;DHT22;58882;52.170;5.386;2022-09-09T10:51:41;24.40;48.40
70807;DHT22;58882;52.170;5.386;2022-09-09T10:54:35;24.50;48.30
70807;DHT22;58882;52.170;5.386;2022-09-09T10:57:28;24.50;48.30
70807;DHT22;58882;52.170;5.386;2022-09-09T11:00:24;24.60;48.30
70807;DHT22;58882;52.170;5.386;2022-09-09T11:03:02;24.60;48.20
70807;DHT22;58882;52.170;5.386;2022-09-09T11:06:02;24.60;48.10
70807;DHT22;58882;52.170;5.386;2022-09-09T11:08:45;24.70;48.10
70807;DHT22;58882;52.170;5.386;2022-09-09T11:11:42;24.70;48.10
70807;DHT22;58882;52.170;5.386;2022-09-09T11:14:36;24.80;48.10
70807;DHT22;58882;52.170;5.386;2022-09-09T11:17:45;24.90;47.70
70807;DHT22;58882;52.170;5.386;2022-09-09T11:20:20;25.10;47.80
70807;DHT22;58882;52.170;5.386;2022-09-09T11:23:18;25.10;47.40
70807;DHT22;58882;52.170;5.386;2022-09-09T11:26:03;25.20;48.30
70807;DHT22;58882;52.170;5.386;2022-09-09T11:29:36;25.20;47.30
70807;DHT22;58882;52.170;5.386;2022-09-09T11:36:33;25.10;47.20
70807;DHT22;58882;52.170;5.386;2022-09-09T11:40:25;25.10;47.30
70807;DHT22;58882;52.170;5.386;2022-09-09T11:42:46;25.10;47.40
70807;DHT22;58882;52.170;5.386;2022-09-09T11:45:35;25.10;47.50
70807;DHT22;58882;52.170;5.386;2022-09-09T11:48:39;25.00;47.40
70807;DHT22;58882;52.170;5.386;2022-09-09T11:51:34;25.00;47.50
70807;DHT22;58882;52.170;5.386;2022-09-09T11:54:31;25.10;47.50
70807;DHT22;58882;52.170;5.386;2022-09-09T11:57:25;25.10;47.40
70807;DHT22;58882;52.170;5.386;2022-09-09T12:00:06;25.10;47.30
70807;DHT22;58882;52.170;5.386;2022-09-09T12:02:54;25.10;47.20
70807;DHT22;58882;52.170;5.386;2022-09-09T12:05:40;25.10;47.20
70807;DHT22;58882;52.170;5.386;2022-09-09T12:08:28;25.10;47.20
70807;DHT22;58882;52.170;5.386;2022-09-09T12:11:10;25.10;47.20
70807;DHT22;58882;52.170;5.386;2022-09-09T12:13:59;25.10;47.20
70807;DHT22;58882;52.170;5.386;2022-09-09T12:16:54;25.20;47.30
70807;DHT22;58882;52.170;5.386;2022-09-09T12:19:34;25.20;47.20
70807;DHT22;58882;52.170;5.386;2022-09-09T12:34:54;25.10;47.30
70807;DHT22;58882;52.170;5.386;2022-09-09T12:37:38;25.10;47.50
70807;DHT22;58882;52.170;5.386;2022-09-09T12:40:34;25.10;47.60
70807;DHT22;58882;52.170;5.386;2022-09-09T12:43:20;25.10;47.60
70807;DHT22;58882;52.170;5.386;2022-09-09T12:46:42;25.10;47.60
70807;DHT22;58882;52.170;5.386;2022-09-09T12:49:34;25.20;47.70
70807;DHT22;58882;52.170;5.386;2022-09-09T12:52:32;25.20;47.60
70807;DHT22;58882;52.170;5.386;2022-09-09T12:55:24;25.30;47.50
70807;DHT22;58882;52.170;5.386;2022-09-09T12:58:13;25.30;47.50
70807;DHT22;58882;52.170;5.386;2022-09-09T13:00:56;25.30;47.50
70807;DHT22;58882;52.170;5.386;2022-09-09T13:03:45;25.30;47.60
70807;DHT22;58882;52.170;5.386;2022-09-09T13:06:29;25.30;47.80
70807;DHT22;58882;52.170;5.386;2022-09-09T13:09:17;25.30;47.70
70807;DHT22;58882;52.170;5.386;2022-09-09T13:11:57;25.30;47.80
70807;DHT22;58882;52.170;5.386;2022-09-09T13:14:47;25.40;47.80
70807;DHT22;58882;52.170;5.386;2022-09-09T13:17:28;25.40;47.70
70807;DHT22;58882;52.170;5.386;2022-09-09T13:20:18;25.50;47.60
70807;DHT22;58882;52.170;5.386;2022-09-09T13:22:58;25.60;47.40
70807;DHT22;58882;52.170;5.386;2022-09-09T13:28:47;25.70;47.10
70807;DHT22;58882;52.170;5.386;2022-09-09T13:31:36;25.70;47.00
70807;DHT22;58882;52.170;5.386;2022-09-09T13:34:29;25.70;46.90
70807;DHT22;58882;52.170;5.386;2022-09-09T13:37:33;25.60;46.90
70807;DHT22;58882;52.170;5.386;2022-09-09T13:40:20;25.60;46.90
70807;DHT22;58882;52.170;5.386;2022-09-09T13:43:20;25.60;46.80
70807;DHT22;58882;52.170;5.386;2022-09-09T13:51:51;25.50;47.00
70807;DHT22;58882;52.170;5.386;2022-09-09T13:54:56;25.50;47.00
70807;DHT22;58882;52.170;5.386;2022-09-09T13:57:39;25.50;47.10
70807;DHT22;58882;52.170;5.386;2022-09-09T14:00:43;25.50;47.20
70807;DHT22;58882;52.170;5.386;2022-09-09T14:03:17;25.50;47.20
70807;DHT22;58882;52.170;5.386;2022-09-09T14:06:11;25.50;47.20
70807;DHT22;58882;52.170;5.386;2022-09-09T14:08:52;25.40;47.20
70807;DHT22;58882;52.170;5.386;2022-09-09T14:11:42;25.40;47.20
70807;DHT22;58882;52.170;5.386;2022-09-09T14:14:36;25.40;47.20
70807;DHT22;58882;52.170;5.386;2022-09-09T14:17:16;25.40;47.30
70807;DHT22;58882;52.170;5.386;2022-09-09T14:20:04;25.40;47.30
70807;DHT22;58882;52.170;5.386;2022-09-09T14:22:49;25.30;47.40
70807;DHT22;58882;52.170;5.386;2022-09-09T14:25:43;25.30;47.40
70807;DHT22;58882;52.170;5.386;2022-09-09T14:28:23;25.30;47.40
70807;DHT22;58882;52.170;5.386;2022-09-09T14:31:30;25.30;47.40
70807;DHT22;58882;52.170;5.386;2022-09-09T14:34:10;25.30;47.40
70807;DHT22;58882;52.170;5.386;2022-09-09T14:37:04;25.30;47.50
70807;DHT22;58882;52.170;5.386;2022-09-09T14:39:58;25.30;47.50
70807;DHT22;58882;52.170;5.386;2022-09-09T14:42:32;25.30;47.60
70807;DHT22;58882;52.170;5.386;2022-09-09T14:45:26;25.30;48.20
70807;DHT22;58882;52.170;5.386;2022-09-09T14:48:06;25.20;47.60
70807;DHT22;58882;52.170;5.386;2022-09-09T14:50:53;25.20;47.70
70807;DHT22;58882;52.170;5.386;2022-09-09T14:53:33;25.20;47.80
70807;DHT22;58882;52.170;5.386;2022-09-09T14:56:29;25.20;47.80
70807;DHT22;58882;52.170;5.386;2022-09-09T14:59:10;25.20;48.80
70807;DHT22;58882;52.170;5.386;2022-09-09T15:01:57;25.20;48.00
70807;DHT22;58882;52.170;5.386;2022-09-09T15:04:30;25.20;48.10
70807;DHT22;58882;52.170;5.386;2022-09-09T15:07:25;25.10;48.10
70807;DHT22;58882;52.170;5.386;2022-09-09T15:09:58;25.20;48.20
70807;DHT22;58882;52.170;5.386;2022-09-09T15:12:52;25.20;48.20
70807;DHT22;58882;52.170;5.386;2022-09-09T15:15:33;25.20;48.10
70807;DHT22;58882;52.170;5.386;2022-09-09T15:18:21;25.30;48.20
70807;DHT22;58882;52.170;5.386;2022-09-09T15:21:03;25.30;48.10
70807;DHT22;58882;52.170;5.386;2022-09-09T15:23:50;25.30;48.10
70807;DHT22;58882;52.170;5.386;2022-09-09T15:26:31;25.30;48.00
70807;DHT22;58882;52.170;5.386;2022-09-09T15:29:28;25.30;48.00
70807;DHT22;58882;52.170;5.386;2022-09-09T15:32:08;25.30;48.00
70807;DHT22;58882;52.170;5.386;2022-09-09T15:34:55;25.30;48.10
70807;DHT22;58882;52.170;5.386;2022-09-09T15:37:35;25.30;48.10
70807;DHT22;58882;52.170;5.386;2022-09-09T15:40:29;25.30;49.10
70807;DHT22;58882;52.170;5.386;2022-09-09T15:43:06;25.20;48.10
70807;DHT22;58882;52.170;5.386;2022-09-09T15:49:13;25.20;48.20
70807;DHT22;58882;52.170;5.386;2022-09-09T15:52:02;25.20;48.20
70807;DHT22;58882;52.170;5.386;2022-09-09T15:54:43;25.10;48.10
70807;DHT22;58882;52.170;5.386;2022-09-09T15:57:30;25.20;48.30
70807;DHT22;58882;52.170;5.386;2022-09-09T16:00:11;25.10;48.20
70807;DHT22;58882;52.170;5.386;2022-09-09T16:02:58;25.10;48.20
70807;DHT22;58882;52.170;5.386;2022-09-09T16:05:38;25.10;48.30
70807;DHT22;58882;52.170;5.386;2022-09-09T16:08:31;25.10;48.20
70807;DHT22;58882;52.170;5.386;2022-09-09T16:11:17;25.10;48.30
70807;DHT22;58882;52.170;5.386;2022-09-09T16:14:05;25.10;48.30
70807;DHT22;58882;52.170;5.386;2022-09-09T16:16:59;25.10;48.30
70807;DHT22;58882;52.170;5.386;2022-09-09T16:19:33;25.10;48.30
70807;DHT22;58882;52.170;5.386;2022-09-09T16:22:28;25.10;48.30
70807;DHT22;58882;52.170;5.386;2022-09-09T16:25:01;25.10;48.40
70807;DHT22;58882;52.170;5.386;2022-09-09T16:27:55;25.10;48.40
70807;DHT22;58882;52.170;5.386;2022-09-09T16:30:28;25.10;48.40
70807;DHT22;58882;52.170;5.386;2022-09-09T16:33:22;25.00;48.40
70807;DHT22;58882;52.170;5.386;2022-09-09T16:36:07;25.00;48.30
70807;DHT22;58882;52.170;5.386;2022-09-09T16:39:01;25.00;48.30
70807;DHT22;58882;52.170;5.386;2022-09-09T16:41:43;25.00;48.40
70807;DHT22;58882;52.170;5.386;2022-09-09T16:44:39;25.00;48.40
70807;DHT22;58882;52.170;5.386;2022-09-09T16:47:19;25.00;48.40
70807;DHT22;58882;52.170;5.386;2022-09-09T16:50:06;25.00;48.40
70807;DHT22;58882;52.170;5.386;2022-09-09T16:52:46;25.00;48.40
70807;DHT22;58882;52.170;5.386;2022-09-09T16:55:33;24.90;48.70
70807;DHT22;58882;52.170;5.386;2022-09-09T16:58:11;24.90;48.40
70807;DHT22;58882;52.170;5.386;2022-09-09T17:01:05;24.90;49.40
70807;DHT22;58882;52.170;5.386;2022-09-09T17:03:45;24.90;48.40
70807;DHT22;58882;52.170;5.386;2022-09-09T17:06:36;24.90;48.40
70807;DHT22;58882;52.170;5.386;2022-09-09T17:09:18;24.90;48.40
70807;DHT22;58882;52.170;5.386;2022-09-09T17:12:07;24.90;48.50
70807;DHT22;58882;52.170;5.386;2022-09-09T17:15:01;24.80;48.50
70807;DHT22;58882;52.170;5.386;2022-09-09T17:17:41;24.80;48.50
70807;DHT22;58882;52.170;5.386;2022-09-09T17:20:36;24.80;48.50
70807;DHT22;58882;52.170;5.386;2022-09-09T17:23:18;24.80;48.70
70807;DHT22;58882;52.170;5.386;2022-09-09T17:26:15;24.70;48.60
70807;DHT22;58882;52.170;5.386;2022-09-09T17:28:49;24.70;48.70
70807;DHT22;58882;52.170;5.386;2022-09-09T17:31:44;24.70;48.70
70807;DHT22;58882;52.170;5.386;2022-09-09T17:34:24;24.70;48.80
70807;DHT22;58882;52.170;5.386;2022-09-09T17:37:11;24.70;48.90
70807;DHT22;58882;52.170;5.386;2022-09-09T17:39:52;24.70;49.00
70807;DHT22;58882;52.170;5.386;2022-09-09T17:42:39;24.70;49.00
70807;DHT22;58882;52.170;5.386;2022-09-09T17:45:20;24.60;49.00
70807;DHT22;58882;52.170;5.386;2022-09-09T17:48:00;24.60;49.00
70807;DHT22;58882;52.170;5.386;2022-09-09T17:51:00;24.60;49.10
70807;DHT22;58882;52.170;5.386;2022-09-09T17:53:44;24.60;49.20
70807;DHT22;58882;52.170;5.386;2022-09-09T17:56:32;24.60;49.30
70807;DHT22;58882;52.170;5.386;2022-09-09T17:59:13;24.50;49.40
70807;DHT22;58882;52.170;5.386;2022-09-09T18:02:10;24.50;49.50
70807;DHT22;58882;52.170;5.386;2022-09-09T18:04:44;24.50;49.50
70807;DHT22;58882;52.170;5.386;2022-09-09T18:07:38;24.50;49.50
70807;DHT22;58882;52.170;5.386;2022-09-09T18:10:11;24.50;49.60
70807;DHT22;58882;52.170;5.386;2022-09-09T18:13:05;24.50;49.70
70807;DHT22;58882;52.170;5.386;2022-09-09T18:15:42;24.50;49.80
70807;DHT22;58882;52.170;5.386;2022-09-09T18:18:36;24.50;49.90
70807;DHT22;58882;52.170;5.386;2022-09-09T18:21:09;24.40;49.80
70807;DHT22;58882;52.170;5.386;2022-09-09T18:24:06;24.40;49.80
70807;DHT22;58882;52.170;5.386;2022-09-09T18:26:47;24.40;49.80
70807;DHT22;58882;52.170;5.386;2022-09-09T18:29:34;24.40;50.00
70807;DHT22;58882;52.170;5.386;2022-09-09T18:32:14;24.40;50.00
70807;DHT22;58882;52.170;5.386;2022-09-09T18:35:02;24.40;50.00
70807;DHT22;58882;52.170;5.386;2022-09-09T18:37:35;24.40;50.10
70807;DHT22;58882;52.170;5.386;2022-09-09T18:40:32;24.40;50.00
70807;DHT22;58882;52.170;5.386;2022-09-09T18:43:12;24.30;49.90
70807;DHT22;58882;52.170;5.386;2022-09-09T18:46:03;24.30;49.90
70807;DHT22;58882;52.170;5.386;2022-09-09T18:48:36;24.30;50.00
70807;DHT22;58882;52.170;5.386;2022-09-09T18:51:35;24.30;50.00
70807;DHT22;58882;52.170;5.386;2022-09-09T18:54:21;24.30;50.00
70807;DHT22;58882;52.170;5.386;2022-09-09T18:57:16;24.30;50.10
70807;DHT22;58882;52.170;5.386;2022-09-09T18:59:56;24.30;50.10
70807;DHT22;58882;52.170;5.386;2022-09-09T19:02:43;24.30;50.10
70807;DHT22;58882;52.170;5.386;2022-09-09T19:05:25;24.30;51.20
70807;DHT22;58882;52.170;5.386;2022-09-09T19:08:13;24.30;50.20
70807;DHT22;58882;52.170;5.386;2022-09-09T19:10:53;24.20;50.20
70807;DHT22;58882;52.170;5.386;2022-09-09T19:13:40;24.20;50.20
70807;DHT22;58882;52.170;5.386;2022-09-09T19:16:34;24.20;50.30
70807;DHT22;58882;52.170;5.386;2022-09-09T19:19:20;24.20;50.30
70807;DHT22;58882;52.170;5.386;2022-09-09T19:22:15;24.20;50.30
70807;DHT22;58882;52.170;5.386;2022-09-09T19:24:55;24.20;50.30
70807;DHT22;58882;52.170;5.386;2022-09-09T19:27:42;24.20;50.30
70807;DHT22;58882;52.170;5.386;2022-09-09T19:30:22;24.20;50.50
70807;DHT22;58882;52.170;5.386;2022-09-09T19:33:09;24.20;50.50
70807;DHT22;58882;52.170;5.386;2022-09-09T19:36:00;24.20;50.50